sensor_id;sensor_type;location;lat;lon;timestamp;temperature;humidity
3846;DHT22;1938;50.812;7.738;2023-09-07T00:00:58;17.40;99.90
3846;DHT22;1938;50.812;7.738;2023-09-07T00:03:25;17.40;99.90
3846;DHT22;1938;50.812;7.738;2023-09-07T00:05:50;17.40;99.90
3846;DHT22;1938;50.812;7.738;2023-09-07T00:08:16;17.30;99.90
3846;DHT22;1938;50.812;7.738;2023-09-07T00:10:45;17.30;99.90
3846;DHT22;1938;50.812;7.738;2023-09-07T00:13:11;17.30;99.90
3846;DHT22;1938;50.812;7.738;2023-09-07T00:15:37;17.30;99.90
3846;DHT22;1938;50.812;7.738;2023-09-07T00:18:04;17.30;99.90
3846;DHT22;1938;50.812;7.738;2023-09-07T00:20:29;17.20;99.90
3846;DHT22;1938;50.812;7.738;2023-09-07T00:22:55;17.20;99.90
3846;DHT22;1938;50.812;7.738;2023-09-07T00:25:22;17.20;99.90
3846;DHT22;1938;50.812;7.738;2023-09-07T00:27:48;17.20;99.90
3846;DHT22;1938;50.812;7.738;2023-09-07T00:30:14;17.10;99.90
3846;DHT22;1938;50.812;7.738;2023-09-07T00:32:40;17.10;99.90
3846;DHT22;1938;50.812;7.738;2023-09-07T00:35:06;17.10;99.90
3846;DHT22;1938;50.812;7.738;2023-09-07T00:37:32;17.10;99.90
3846;DHT22;1938;50.812;7.738;2023-09-07T00:39:58;17.10;99.90
3846;DHT22;1938;50.812;7.738;2023-09-07T00:42:24;17.00;99.90
3846;DHT22;1938;50.812;7.738;2023-09-07T00:44:49;17.00;99.90
3846;DHT22;1938;50.812;7.738;2023-09-07T00:47:16;17.00;99.90
3846;DHT22;1938;50.812;7.738;2023-09-07T00:49:42;16.90;99.90
3846;DHT22;1938;50.812;7.738;2023-09-07T00:52:08;16.80;99.90
3846;DHT22;1938;50.812;7.738;2023-09-07T00:54:36;16.70;99.90
3846;DHT22;1938;50.812;7.738;2023-09-07T00:57:04;16.70;99.90
3846;DHT22;1938;50.812;7.738;2023-09-07T00:59:30;16.60;99.90
3846;DHT22;1938;50.812;7.738;2023-09-07T01:01:58;16.60;99.90
3846;DHT22;1938;50.812;7.738;2023-09-07T01:04:23;16.60;99.90
3846;DHT22;1938;50.812;7.738;2023-09-07T01:07:11;16.60;99.90
3846;DHT22;1938;50.812;7.738;2023-09-07T01:09:40;16.70;99.90
3846;DHT22;1938;50.812;7.738;2023-09-07T01:12:07;16.70;99.90
3846;DHT22;1938;50.812;7.738;2023-09-07T01:14:37;16.80;99.90
3846;DHT22;1938;50.812;7.738;2023-09-07T01:17:03;16.80;99.90
3846;DHT22;1938;50.812;7.738;2023-09-07T01:19:29;16.80;98.60
3846;DHT22;1938;50.812;7.738;2023-09-07T01:21:55;16.80;99.90
3846;DHT22;1938;50.812;7.738;2023-09-07T01:24:22;16.80;99.90
3846;DHT22;1938;50.812;7.738;2023-09-07T01:26:48;16.80;92.90
3846;DHT22;1938;50.812;7.738;2023-09-07T01:29:15;16.80;60.10
3846;DHT22;1938;50.812;7.738;2023-09-07T01:31:42;16.80;66.40
3846;DHT22;1938;50.812;7.738;2023-09-07T01:34:08;16.80;77.90
3846;DHT22;1938;50.812;7.738;2023-09-07T01:36:34;16.80;81.40
3846;DHT22;1938;50.812;7.738;2023-09-07T01:39:00;16.80;30.90
3846;DHT22;1938;50.812;7.738;2023-09-07T01:41:26;16.80;47.80
3846;DHT22;1938;50.812;7.738;2023-09-07T01:43:52;16.80;56.20
3846;DHT22;1938;50.812;7.738;2023-09-07T01:46:17;16.70;55.00
3846;DHT22;1938;50.812;7.738;2023-09-07T01:48:43;16.70;65.60
3846;DHT22;1938;50.812;7.738;2023-09-07T01:51:10;16.70;99.90
3846;DHT22;1938;50.812;7.738;2023-09-07T01:53:35;16.70;99.90
3846;DHT22;1938;50.812;7.738;2023-09-07T01:56:01;16.60;99.90
3846;DHT22;1938;50.812;7.738;2023-09-07T01:58:26;16.60;99.90
3846;DHT22;1938;50.812;7.738;2023-09-07T02:00:58;16.60;99.90
3846;DHT22;1938;50.812;7.738;2023-09-07T02:03:25;16.60;99.90
3846;DHT22;1938;50.812;7.738;2023-09-07T02:05:51;16.50;99.90
3846;DHT22;1938;50.812;7.738;2023-09-07T02:08:17;16.50;99.90
3846;DHT22;1938;50.812;7.738;2023-09-07T02:10:42;16.50;99.90
3846;DHT22;1938;50.812;7.738;2023-09-07T02:13:08;16.50;99.90
3846;DHT22;1938;50.812;7.738;2023-09-07T02:15:39;16.50;99.90
3846;DHT22;1938;50.812;7.738;2023-09-07T02:18:06;16.50;99.90
3846;DHT22;1938;50.812;7.738;2023-09-07T02:20:32;16.50;99.90
3846;DHT22;1938;50.812;7.738;2023-09-07T02:22:58;16.50;99.90
3846;DHT22;1938;50.812;7.738;2023-09-07T02:25:24;16.40;99.90
3846;DHT22;1938;50.812;7.738;2023-09-07T02:27:49;16.40;99.90
3846;DHT22;1938;50.812;7.738;2023-09-07T02:30:15;16.40;99.90
3846;DHT22;1938;50.812;7.738;2023-09-07T02:32:42;16.40;99.90
3846;DHT22;1938;50.812;7.738;2023-09-07T02:35:08;16.40;99.90
3846;DHT22;1938;50.812;7.738;2023-09-07T02:37:35;16.30;99.90
3846;DHT22;1938;50.812;7.738;2023-09-07T02:40:02;16.30;99.90
3846;DHT22;1938;50.812;7.738;2023-09-07T02:42:33;16.30;99.90
3846;DHT22;1938;50.812;7.738;2023-09-07T02:44:58;16.20;99.90
3846;DHT22;1938;50.812;7.738;2023-09-07T02:47:24;16.30;99.90
3846;DHT22;1938;50.812;7.738;2023-09-07T02:49:49;16.30;99.90
3846;DHT22;1938;50.812;7.738;2023-09-07T02:52:16;16.40;99.90
3846;DHT22;1938;50.812;7.738;2023-09-07T02:54:41;16.40;99.90
3846;DHT22;1938;50.812;7.738;2023-09-07T02:57:07;16.40;99.90
3846;DHT22;1938;50.812;7.738;2023-09-07T02:59:32;16.40;93.20
3846;DHT22;1938;50.812;7.738;2023-09-07T03:01:58;16.30;99.90
3846;DHT22;1938;50.812;7.738;2023-09-07T03:04:24;16.30;99.90
3846;DHT22;1938;50.812;7.738;2023-09-07T03:06:49;16.20;99.90
3846;DHT22;1938;50.812;7.738;2023-09-07T03:09:15;16.10;99.90
3846;DHT22;1938;50.812;7.738;2023-09-07T03:11:40;16.00;99.90
3846;DHT22;1938;50.812;7.738;2023-09-07T03:14:06;15.90;99.90
3846;DHT22;1938;50.812;7.738;2023-09-07T03:16:31;15.80;99.90
3846;DHT22;1938;50.812;7.738;2023-09-07T03:18:57;15.80;1.00
3846;DHT22;1938;50.812;7.738;2023-09-07T03:21:22;15.80;1.00
3846;DHT22;1938;50.812;7.738;2023-09-07T03:23:55;15.70;1.00
3846;DHT22;1938;50.812;7.738;2023-09-07T03:26:21;15.80;99.90
3846;DHT22;1938;50.812;7.738;2023-09-07T03:28:47;15.80;99.90
3846;DHT22;1938;50.812;7.738;2023-09-07T03:31:13;15.90;99.90
3846;DHT22;1938;50.812;7.738;2023-09-07T03:33:38;15.90;99.90
3846;DHT22;1938;50.812;7.738;2023-09-07T03:36:04;15.90;99.90
3846;DHT22;1938;50.812;7.738;2023-09-07T03:38:30;15.90;99.90
3846;DHT22;1938;50.812;7.738;2023-09-07T03:40:55;15.80;99.90
3846;DHT22;1938;50.812;7.738;2023-09-07T03:43:21;15.80;99.90
3846;DHT22;1938;50.812;7.738;2023-09-07T03:45:46;15.90;99.90
3846;DHT22;1938;50.812;7.738;2023-09-07T03:48:12;15.90;99.90
3846;DHT22;1938;50.812;7.738;2023-09-07T03:50:38;15.90;99.90
3846;DHT22;1938;50.812;7.738;2023-09-07T03:53:03;15.80;99.90
3846;DHT22;1938;50.812;7.738;2023-09-07T03:55:39;15.90;99.90
3846;DHT22;1938;50.812;7.738;2023-09-07T03:58:05;15.80;99.90
3846;DHT22;1938;50.812;7.738;2023-09-07T04:00:30;15.80;99.90
3846;DHT22;1938;50.812;7.738;2023-09-07T04:02:56;15.70;99.90
3846;DHT22;1938;50.812;7.738;2023-09-07T04:05:21;15.70;1.00
3846;DHT22;1938;50.812;7.738;2023-09-07T04:07:47;15.70;1.00
3846;DHT22;1938;50.812;7.738;2023-09-07T04:10:12;15.60;1.00
3846;DHT22;1938;50.812;7.738;2023-09-07T04:12:38;15.60;1.00
3846;DHT22;1938;50.812;7.738;2023-09-07T04:15:04;15.60;1.00
3846;DHT22;1938;50.812;7.738;2023-09-07T04:17:29;15.50;1.00
3846;DHT22;1938;50.812;7.738;2023-09-07T04:19:55;15.50;1.00
3846;DHT22;1938;50.812;7.738;2023-09-07T04:22:21;15.50;1.00
3846;DHT22;1938;50.812;7.738;2023-09-07T04:24:49;15.50;1.00
3846;DHT22;1938;50.812;7.738;2023-09-07T04:27:15;15.40;15.40
3846;DHT22;1938;50.812;7.738;2023-09-07T04:29:40;15.40;56.20
3846;DHT22;1938;50.812;7.738;2023-09-07T04:32:06;15.40;60.40
3846;DHT22;1938;50.812;7.738;2023-09-07T04:34:31;15.40;35.00
3846;DHT22;1938;50.812;7.738;2023-09-07T04:36:57;15.40;1.00
3846;DHT22;1938;50.812;7.738;2023-09-07T04:39:22;15.40;1.00
3846;DHT22;1938;50.812;7.738;2023-09-07T04:41:49;15.40;1.00
3846;DHT22;1938;50.812;7.738;2023-09-07T04:44:15;15.50;1.00
3846;DHT22;1938;50.812;7.738;2023-09-07T04:46:40;15.40;1.00
3846;DHT22;1938;50.812;7.738;2023-09-07T04:49:06;15.50;1.00
3846;DHT22;1938;50.812;7.738;2023-09-07T04:51:32;15.50;1.00
3846;DHT22;1938;50.812;7.738;2023-09-07T04:53:57;15.50;1.00
3846;DHT22;1938;50.812;7.738;2023-09-07T04:56:23;15.50;1.00
3846;DHT22;1938;50.812;7.738;2023-09-07T04:58:51;15.50;1.00
3846;DHT22;1938;50.812;7.738;2023-09-07T05:01:16;15.50;1.00
3846;DHT22;1938;50.812;7.738;2023-09-07T05:03:42;15.60;99.90
3846;DHT22;1938;50.812;7.738;2023-09-07T05:06:07;15.70;99.90
3846;DHT22;1938;50.812;7.738;2023-09-07T05:08:33;15.80;99.90
3846;DHT22;1938;50.812;7.738;2023-09-07T05:11:00;15.80;99.90
3846;DHT22;1938;50.812;7.738;2023-09-07T05:13:26;15.90;99.90
3846;DHT22;1938;50.812;7.738;2023-09-07T05:15:53;15.90;99.90
3846;DHT22;1938;50.812;7.738;2023-09-07T05:18:19;15.90;99.90
3846;DHT22;1938;50.812;7.738;2023-09-07T05:20:46;16.00;99.90
3846;DHT22;1938;50.812;7.738;2023-09-07T05:23:17;16.00;99.90
3846;DHT22;1938;50.812;7.738;2023-09-07T05:25:49;16.00;99.90
3846;DHT22;1938;50.812;7.738;2023-09-07T05:28:19;16.00;99.90
3846;DHT22;1938;50.812;7.738;2023-09-07T05:30:45;16.10;99.90
3846;DHT22;1938;50.812;7.738;2023-09-07T05:33:12;16.10;99.90
3846;DHT22;1938;50.812;7.738;2023-09-07T05:35:38;16.10;96.90
3846;DHT22;1938;50.812;7.738;2023-09-07T05:38:06;16.20;67.80
3846;DHT22;1938;50.812;7.738;2023-09-07T05:40:37;16.30;47.60
3846;DHT22;1938;50.812;7.738;2023-09-07T05:43:03;16.70;1.00
3846;DHT22;1938;50.812;7.738;2023-09-07T05:45:30;17.70;99.90
3846;DHT22;1938;50.812;7.738;2023-09-07T05:47:57;18.70;99.90
3846;DHT22;1938;50.812;7.738;2023-09-07T05:50:22;19.50;45.20
3846;DHT22;1938;50.812;7.738;2023-09-07T05:52:48;20.40;1.00
3846;DHT22;1938;50.812;7.738;2023-09-07T05:55:13;21.20;1.00
3846;DHT22;1938;50.812;7.738;2023-09-07T05:57:39;21.60;1.00
3846;DHT22;1938;50.812;7.738;2023-09-07T06:00:05;22.20;1.00
3846;DHT22;1938;50.812;7.738;2023-09-07T06:02:31;22.40;1.00
3846;DHT22;1938;50.812;7.738;2023-09-07T06:04:57;22.30;1.00
3846;DHT22;1938;50.812;7.738;2023-09-07T06:07:22;22.70;1.00
3846;DHT22;1938;50.812;7.738;2023-09-07T06:09:48;22.70;1.00
3846;DHT22;1938;50.812;7.738;2023-09-07T06:12:13;22.60;1.00
3846;DHT22;1938;50.812;7.738;2023-09-07T06:14:39;22.60;1.00
3846;DHT22;1938;50.812;7.738;2023-09-07T06:17:05;23.10;1.00
3846;DHT22;1938;50.812;7.738;2023-09-07T06:19:31;23.00;1.00
3846;DHT22;1938;50.812;7.738;2023-09-07T06:21:57;23.40;1.00
3846;DHT22;1938;50.812;7.738;2023-09-07T06:24:22;23.00;1.00
3846;DHT22;1938;50.812;7.738;2023-09-07T06:26:48;22.80;1.00
3846;DHT22;1938;50.812;7.738;2023-09-07T06:29:13;23.00;1.00
3846;DHT22;1938;50.812;7.738;2023-09-07T06:31:39;23.30;1.00
3846;DHT22;1938;50.812;7.738;2023-09-07T06:34:04;24.00;1.00
3846;DHT22;1938;50.812;7.738;2023-09-07T06:36:31;24.20;1.00
3846;DHT22;1938;50.812;7.738;2023-09-07T06:38:57;24.20;1.00
3846;DHT22;1938;50.812;7.738;2023-09-07T06:41:24;25.40;1.00
3846;DHT22;1938;50.812;7.738;2023-09-07T06:43:49;25.70;1.00
3846;DHT22;1938;50.812;7.738;2023-09-07T06:46:15;26.70;1.00
3846;DHT22;1938;50.812;7.738;2023-09-07T06:48:40;26.90;1.00
3846;DHT22;1938;50.812;7.738;2023-09-07T06:51:06;26.90;1.00
3846;DHT22;1938;50.812;7.738;2023-09-07T06:53:33;26.10;1.00
3846;DHT22;1938;50.812;7.738;2023-09-07T06:55:59;26.10;1.00
3846;DHT22;1938;50.812;7.738;2023-09-07T06:58:25;26.90;1.00
3846;DHT22;1938;50.812;7.738;2023-09-07T07:00:51;26.80;1.00
3846;DHT22;1938;50.812;7.738;2023-09-07T07:03:16;27.60;1.00
3846;DHT22;1938;50.812;7.738;2023-09-07T07:05:42;28.40;1.00
3846;DHT22;1938;50.812;7.738;2023-09-07T07:08:09;28.10;1.00
3846;DHT22;1938;50.812;7.738;2023-09-07T07:10:34;28.40;1.00
3846;DHT22;1938;50.812;7.738;2023-09-07T07:13:00;27.30;1.00
3846;DHT22;1938;50.812;7.738;2023-09-07T07:15:25;27.10;1.00
3846;DHT22;1938;50.812;7.738;2023-09-07T07:17:51;27.10;1.00
3846;DHT22;1938;50.812;7.738;2023-09-07T07:20:17;26.90;1.00
3846;DHT22;1938;50.812;7.738;2023-09-07T07:22:42;26.60;1.00
3846;DHT22;1938;50.812;7.738;2023-09-07T07:25:08;26.40;1.00
3846;DHT22;1938;50.812;7.738;2023-09-07T07:27:33;26.70;1.00
3846;DHT22;1938;50.812;7.738;2023-09-07T07:29:59;27.40;1.00
3846;DHT22;1938;50.812;7.738;2023-09-07T07:32:25;27.80;1.00
3846;DHT22;1938;50.812;7.738;2023-09-07T07:34:50;28.20;1.00
3846;DHT22;1938;50.812;7.738;2023-09-07T07:37:16;27.90;1.00
3846;DHT22;1938;50.812;7.738;2023-09-07T07:39:41;27.50;1.00
3846;DHT22;1938;50.812;7.738;2023-09-07T07:42:07;27.90;1.00
3846;DHT22;1938;50.812;7.738;2023-09-07T07:44:32;27.00;1.00
3846;DHT22;1938;50.812;7.738;2023-09-07T07:46:58;27.40;1.00
3846;DHT22;1938;50.812;7.738;2023-09-07T07:49:24;27.50;1.00
3846;DHT22;1938;50.812;7.738;2023-09-07T07:51:50;27.40;1.00
3846;DHT22;1938;50.812;7.738;2023-09-07T07:54:16;27.30;1.00
3846;DHT22;1938;50.812;7.738;2023-09-07T07:56:42;27.90;1.00
3846;DHT22;1938;50.812;7.738;2023-09-07T07:59:07;28.50;1.00
3846;DHT22;1938;50.812;7.738;2023-09-07T08:01:33;29.50;1.00
3846;DHT22;1938;50.812;7.738;2023-09-07T08:03:58;30.50;1.00
3846;DHT22;1938;50.812;7.738;2023-09-07T08:06:24;30.90;1.00
3846;DHT22;1938;50.812;7.738;2023-09-07T08:08:49;30.90;1.00
3846;DHT22;1938;50.812;7.738;2023-09-07T08:11:15;31.00;1.00
3846;DHT22;1938;50.812;7.738;2023-09-07T08:13:41;31.20;1.00
3846;DHT22;1938;50.812;7.738;2023-09-07T08:16:06;32.50;1.00
3846;DHT22;1938;50.812;7.738;2023-09-07T08:18:33;33.80;1.00
3846;DHT22;1938;50.812;7.738;2023-09-07T08:20:59;32.60;1.00
3846;DHT22;1938;50.812;7.738;2023-09-07T08:23:25;33.80;1.00
3846;DHT22;1938;50.812;7.738;2023-09-07T08:25:53;34.40;1.00
3846;DHT22;1938;50.812;7.738;2023-09-07T08:28:19;34.90;1.00
3846;DHT22;1938;50.812;7.738;2023-09-07T08:30:49;34.40;1.00
3846;DHT22;1938;50.812;7.738;2023-09-07T08:33:16;34.30;1.00
3846;DHT22;1938;50.812;7.738;2023-09-07T08:35:42;35.80;1.00
3846;DHT22;1938;50.812;7.738;2023-09-07T08:38:10;35.80;1.00
3846;DHT22;1938;50.812;7.738;2023-09-07T08:40:36;34.80;1.00
3846;DHT22;1938;50.812;7.738;2023-09-07T08:43:05;34.90;1.00
3846;DHT22;1938;50.812;7.738;2023-09-07T08:45:37;34.40;1.00
3846;DHT22;1938;50.812;7.738;2023-09-07T08:48:07;34.80;1.00
3846;DHT22;1938;50.812;7.738;2023-09-07T08:50:33;34.20;1.00
3846;DHT22;1938;50.812;7.738;2023-09-07T08:52:59;34.20;1.00
3846;DHT22;1938;50.812;7.738;2023-09-07T08:55:25;33.90;1.00
3846;DHT22;1938;50.812;7.738;2023-09-07T08:57:51;33.90;1.00
3846;DHT22;1938;50.812;7.738;2023-09-07T09:00:16;33.60;1.00
3846;DHT22;1938;50.812;7.738;2023-09-07T09:02:43;32.60;1.00
3846;DHT22;1938;50.812;7.738;2023-09-07T09:05:12;31.90;1.00
3846;DHT22;1938;50.812;7.738;2023-09-07T09:07:39;31.60;1.00
3846;DHT22;1938;50.812;7.738;2023-09-07T09:10:09;31.40;1.00
3846;DHT22;1938;50.812;7.738;2023-09-07T09:12:35;31.60;1.00
3846;DHT22;1938;50.812;7.738;2023-09-07T09:15:01;31.00;1.00
3846;DHT22;1938;50.812;7.738;2023-09-07T09:17:28;30.60;1.00
3846;DHT22;1938;50.812;7.738;2023-09-07T09:19:54;30.20;1.00
3846;DHT22;1938;50.812;7.738;2023-09-07T09:22:19;30.30;1.00
3846;DHT22;1938;50.812;7.738;2023-09-07T09:24:48;30.10;1.00
3846;DHT22;1938;50.812;7.738;2023-09-07T09:27:13;29.90;1.00
3846;DHT22;1938;50.812;7.738;2023-09-07T09:29:39;29.60;1.00
3846;DHT22;1938;50.812;7.738;2023-09-07T09:32:07;29.60;1.00
3846;DHT22;1938;50.812;7.738;2023-09-07T09:34:36;29.10;99.90
3846;DHT22;1938;50.812;7.738;2023-09-07T09:37:02;28.60;99.90
3846;DHT22;1938;50.812;7.738;2023-09-07T09:39:31;28.20;99.90
3846;DHT22;1938;50.812;7.738;2023-09-07T09:41:57;28.10;99.90
3846;DHT22;1938;50.812;7.738;2023-09-07T09:44:24;27.90;99.90
3846;DHT22;1938;50.812;7.738;2023-09-07T09:46:53;28.00;99.90
3846;DHT22;1938;50.812;7.738;2023-09-07T09:49:22;27.70;99.90
3846;DHT22;1938;50.812;7.738;2023-09-07T09:51:49;27.80;99.90
3846;DHT22;1938;50.812;7.738;2023-09-07T09:54:20;27.80;99.90
3846;DHT22;1938;50.812;7.738;2023-09-07T09:56:47;27.80;99.90
3846;DHT22;1938;50.812;7.738;2023-09-07T09:59:14;27.70;99.90
3846;DHT22;1938;50.812;7.738;2023-09-07T10:01:43;27.50;99.90
3846;DHT22;1938;50.812;7.738;2023-09-07T10:04:11;27.20;99.90
3846;DHT22;1938;50.812;7.738;2023-09-07T10:06:37;27.10;99.90
3846;DHT22;1938;50.812;7.738;2023-09-07T10:09:06;27.00;99.90
3846;DHT22;1938;50.812;7.738;2023-09-07T10:11:33;27.10;99.90
3846;DHT22;1938;50.812;7.738;2023-09-07T10:14:00;27.10;99.90
3846;DHT22;1938;50.812;7.738;2023-09-07T10:16:26;27.10;99.90
3846;DHT22;1938;50.812;7.738;2023-09-07T10:18:54;27.20;99.90
3846;DHT22;1938;50.812;7.738;2023-09-07T10:21:24;27.10;99.90
3846;DHT22;1938;50.812;7.738;2023-09-07T10:23:51;27.20;99.90
3846;DHT22;1938;50.812;7.738;2023-09-07T10:26:20;27.30;99.90
3846;DHT22;1938;50.812;7.738;2023-09-07T10:28:59;27.50;99.90
3846;DHT22;1938;50.812;7.738;2023-09-07T10:31:25;27.40;99.90
3846;DHT22;1938;50.812;7.738;2023-09-07T10:33:51;27.50;99.90
3846;DHT22;1938;50.812;7.738;2023-09-07T10:36:25;27.40;99.90
3846;DHT22;1938;50.812;7.738;2023-09-07T10:38:51;27.20;99.90
3846;DHT22;1938;50.812;7.738;2023-09-07T10:41:20;27.60;99.90
3846;DHT22;1938;50.812;7.738;2023-09-07T10:43:51;27.40;99.90
3846;DHT22;1938;50.812;7.738;2023-09-07T10:46:23;27.10;99.90
3846;DHT22;1938;50.812;7.738;2023-09-07T10:48:50;27.10;99.90
3846;DHT22;1938;50.812;7.738;2023-09-07T10:51:21;27.10;99.90
3846;DHT22;1938;50.812;7.738;2023-09-07T10:53:47;27.10;99.90
3846;DHT22;1938;50.812;7.738;2023-09-07T10:56:12;27.30;99.90
3846;DHT22;1938;50.812;7.738;2023-09-07T10:58:39;27.30;1.00
3846;DHT22;1938;50.812;7.738;2023-09-07T11:01:06;27.50;99.90
3846;DHT22;1938;50.812;7.738;2023-09-07T11:03:33;27.40;1.00
3846;DHT22;1938;50.812;7.738;2023-09-07T11:06:02;27.40;99.90
3846;DHT22;1938;50.812;7.738;2023-09-07T11:08:29;27.30;99.90
3846;DHT22;1938;50.812;7.738;2023-09-07T11:10:55;27.50;99.90
3846;DHT22;1938;50.812;7.738;2023-09-07T11:13:25;27.60;99.90
3846;DHT22;1938;50.812;7.738;2023-09-07T11:15:54;27.50;99.90
3846;DHT22;1938;50.812;7.738;2023-09-07T11:18:20;27.80;99.90
3846;DHT22;1938;50.812;7.738;2023-09-07T11:20:50;27.60;99.90
3846;DHT22;1938;50.812;7.738;2023-09-07T11:23:20;27.70;99.90
3846;DHT22;1938;50.812;7.738;2023-09-07T11:25:49;27.70;99.90
3846;DHT22;1938;50.812;7.738;2023-09-07T11:28:17;28.00;99.90
3846;DHT22;1938;50.812;7.738;2023-09-07T11:30:53;28.20;99.90
3846;DHT22;1938;50.812;7.738;2023-09-07T11:33:20;28.00;99.90
3846;DHT22;1938;50.812;7.738;2023-09-07T11:35:45;27.50;99.90
3846;DHT22;1938;50.812;7.738;2023-09-07T11:38:14;27.40;99.90
3846;DHT22;1938;50.812;7.738;2023-09-07T11:40:42;27.30;99.90
3846;DHT22;1938;50.812;7.738;2023-09-07T11:43:14;27.30;99.90
3846;DHT22;1938;50.812;7.738;2023-09-07T11:45:41;27.50;99.90
3846;DHT22;1938;50.812;7.738;2023-09-07T11:48:07;27.80;99.90
3846;DHT22;1938;50.812;7.738;2023-09-07T11:50:36;27.60;99.90
3846;DHT22;1938;50.812;7.738;2023-09-07T11:53:02;27.50;99.90
3846;DHT22;1938;50.812;7.738;2023-09-07T11:55:28;27.70;99.90
3846;DHT22;1938;50.812;7.738;2023-09-07T11:57:54;27.80;99.90
3846;DHT22;1938;50.812;7.738;2023-09-07T12:00:20;27.80;99.90
3846;DHT22;1938;50.812;7.738;2023-09-07T12:02:45;27.70;99.90
3846;DHT22;1938;50.812;7.738;2023-09-07T12:05:11;27.40;99.90
3846;DHT22;1938;50.812;7.738;2023-09-07T12:07:40;27.60;99.90
3846;DHT22;1938;50.812;7.738;2023-09-07T12:10:06;27.60;99.90
3846;DHT22;1938;50.812;7.738;2023-09-07T12:12:41;27.70;99.90
3846;DHT22;1938;50.812;7.738;2023-09-07T12:15:08;27.70;99.90
3846;DHT22;1938;50.812;7.738;2023-09-07T12:17:34;27.90;99.90
3846;DHT22;1938;50.812;7.738;2023-09-07T12:20:00;28.00;99.90
3846;DHT22;1938;50.812;7.738;2023-09-07T12:22:26;27.90;99.90
3846;DHT22;1938;50.812;7.738;2023-09-07T12:24:52;27.80;99.90
3846;DHT22;1938;50.812;7.738;2023-09-07T12:27:18;27.80;99.90
3846;DHT22;1938;50.812;7.738;2023-09-07T12:29:44;27.90;99.90
3846;DHT22;1938;50.812;7.738;2023-09-07T12:32:10;28.00;99.90
3846;DHT22;1938;50.812;7.738;2023-09-07T12:34:35;28.10;99.90
3846;DHT22;1938;50.812;7.738;2023-09-07T12:37:01;27.80;99.90
3846;DHT22;1938;50.812;7.738;2023-09-07T12:39:29;27.80;99.90
3846;DHT22;1938;50.812;7.738;2023-09-07T12:41:54;28.10;99.90
3846;DHT22;1938;50.812;7.738;2023-09-07T12:44:20;28.20;99.90
3846;DHT22;1938;50.812;7.738;2023-09-07T12:46:46;28.00;99.90
3846;DHT22;1938;50.812;7.738;2023-09-07T12:49:12;28.00;99.90
3846;DHT22;1938;50.812;7.738;2023-09-07T12:51:37;28.00;99.90
3846;DHT22;1938;50.812;7.738;2023-09-07T12:54:03;28.00;99.90
3846;DHT22;1938;50.812;7.738;2023-09-07T12:56:28;28.00;99.90
3846;DHT22;1938;50.812;7.738;2023-09-07T12:58:54;28.00;99.90
3846;DHT22;1938;50.812;7.738;2023-09-07T13:01:22;27.90;99.90
3846;DHT22;1938;50.812;7.738;2023-09-07T13:03:48;28.00;99.90
3846;DHT22;1938;50.812;7.738;2023-09-07T13:06:13;28.00;99.90
3846;DHT22;1938;50.812;7.738;2023-09-07T13:08:39;28.10;99.90
3846;DHT22;1938;50.812;7.738;2023-09-07T13:11:04;28.20;99.90
3846;DHT22;1938;50.812;7.738;2023-09-07T13:13:30;28.20;99.90
3846;DHT22;1938;50.812;7.738;2023-09-07T13:15:56;28.30;99.90
3846;DHT22;1938;50.812;7.738;2023-09-07T13:18:22;28.50;99.90
3846;DHT22;1938;50.812;7.738;2023-09-07T13:20:48;28.50;99.90
3846;DHT22;1938;50.812;7.738;2023-09-07T13:23:15;28.60;99.90
3846;DHT22;1938;50.812;7.738;2023-09-07T13:25:41;28.60;99.90
3846;DHT22;1938;50.812;7.738;2023-09-07T13:28:07;28.50;99.90
3846;DHT22;1938;50.812;7.738;2023-09-07T13:30:32;28.40;99.90
3846;DHT22;1938;50.812;7.738;2023-09-07T13:32:59;28.40;99.90
3846;DHT22;1938;50.812;7.738;2023-09-07T13:35:25;28.40;99.90
3846;DHT22;1938;50.812;7.738;2023-09-07T13:37:51;28.50;99.90
3846;DHT22;1938;50.812;7.738;2023-09-07T13:40:17;28.60;99.90
3846;DHT22;1938;50.812;7.738;2023-09-07T13:42:45;28.50;99.90
3846;DHT22;1938;50.812;7.738;2023-09-07T13:45:10;28.60;99.90
3846;DHT22;1938;50.812;7.738;2023-09-07T13:47:36;28.70;99.90
3846;DHT22;1938;50.812;7.738;2023-09-07T13:50:03;28.60;99.90
3846;DHT22;1938;50.812;7.738;2023-09-07T13:52:28;28.60;99.90
3846;DHT22;1938;50.812;7.738;2023-09-07T13:54:54;28.50;99.90
3846;DHT22;1938;50.812;7.738;2023-09-07T13:57:19;28.50;99.90
3846;DHT22;1938;50.812;7.738;2023-09-07T13:59:45;28.50;99.90
3846;DHT22;1938;50.812;7.738;2023-09-07T14:02:10;28.40;99.90
3846;DHT22;1938;50.812;7.738;2023-09-07T14:04:36;28.30;99.90
3846;DHT22;1938;50.812;7.738;2023-09-07T14:07:01;28.50;99.90
3846;DHT22;1938;50.812;7.738;2023-09-07T14:09:27;28.40;99.90
3846;DHT22;1938;50.812;7.738;2023-09-07T14:11:53;28.50;99.90
3846;DHT22;1938;50.812;7.738;2023-09-07T14:14:18;28.40;99.90
3846;DHT22;1938;50.812;7.738;2023-09-07T14:16:44;28.40;99.90
3846;DHT22;1938;50.812;7.738;2023-09-07T14:19:11;28.50;99.90
3846;DHT22;1938;50.812;7.738;2023-09-07T14:21:36;28.40;99.90
3846;DHT22;1938;50.812;7.738;2023-09-07T14:24:02;28.30;99.90
3846;DHT22;1938;50.812;7.738;2023-09-07T14:26:29;28.30;99.90
3846;DHT22;1938;50.812;7.738;2023-09-07T14:28:54;28.30;99.90
3846;DHT22;1938;50.812;7.738;2023-09-07T14:31:20;28.40;99.90
3846;DHT22;1938;50.812;7.738;2023-09-07T14:33:46;28.40;99.90
3846;DHT22;1938;50.812;7.738;2023-09-07T14:36:11;28.40;99.90
3846;DHT22;1938;50.812;7.738;2023-09-07T14:38:37;28.50;99.90
3846;DHT22;1938;50.812;7.738;2023-09-07T14:41:07;28.50;99.90
3846;DHT22;1938;50.812;7.738;2023-09-07T14:43:36;28.40;99.90
3846;DHT22;1938;50.812;7.738;2023-09-07T14:46:03;28.30;99.90
3846;DHT22;1938;50.812;7.738;2023-09-07T14:48:28;28.30;99.90
3846;DHT22;1938;50.812;7.738;2023-09-07T14:50:54;28.30;99.90
3846;DHT22;1938;50.812;7.738;2023-09-07T14:53:20;28.30;99.90
3846;DHT22;1938;50.812;7.738;2023-09-07T14:55:46;28.20;99.90
3846;DHT22;1938;50.812;7.738;2023-09-07T14:58:12;28.20;99.90
3846;DHT22;1938;50.812;7.738;2023-09-07T15:00:38;28.10;99.90
3846;DHT22;1938;50.812;7.738;2023-09-07T15:03:04;28.10;99.90
3846;DHT22;1938;50.812;7.738;2023-09-07T15:05:29;28.20;99.90
3846;DHT22;1938;50.812;7.738;2023-09-07T15:07:55;28.20;99.90
3846;DHT22;1938;50.812;7.738;2023-09-07T15:10:20;28.30;99.90
3846;DHT22;1938;50.812;7.738;2023-09-07T15:12:46;28.20;99.90
3846;DHT22;1938;50.812;7.738;2023-09-07T15:15:12;28.20;99.90
3846;DHT22;1938;50.812;7.738;2023-09-07T15:17:39;28.10;99.90
3846;DHT22;1938;50.812;7.738;2023-09-07T15:20:06;28.10;99.90
3846;DHT22;1938;50.812;7.738;2023-09-07T15:22:32;28.20;99.90
3846;DHT22;1938;50.812;7.738;2023-09-07T15:24:59;28.10;99.90
3846;DHT22;1938;50.812;7.738;2023-09-07T15:27:26;28.10;99.90
3846;DHT22;1938;50.812;7.738;2023-09-07T15:29:52;28.10;99.90
3846;DHT22;1938;50.812;7.738;2023-09-07T15:32:18;28.10;99.90
3846;DHT22;1938;50.812;7.738;2023-09-07T15:34:44;28.10;99.90
3846;DHT22;1938;50.812;7.738;2023-09-07T15:37:09;28.10;99.90
3846;DHT22;1938;50.812;7.738;2023-09-07T15:39:35;28.00;99.90
3846;DHT22;1938;50.812;7.738;2023-09-07T15:42:01;28.00;99.90
3846;DHT22;1938;50.812;7.738;2023-09-07T15:44:26;27.90;99.90
3846;DHT22;1938;50.812;7.738;2023-09-07T15:46:55;27.80;99.90
3846;DHT22;1938;50.812;7.738;2023-09-07T15:49:22;27.80;99.90
3846;DHT22;1938;50.812;7.738;2023-09-07T15:51:47;27.80;99.90
3846;DHT22;1938;50.812;7.738;2023-09-07T15:54:13;27.80;99.90
3846;DHT22;1938;50.812;7.738;2023-09-07T15:56:40;27.70;99.90
3846;DHT22;1938;50.812;7.738;2023-09-07T15:59:06;27.70;99.90
3846;DHT22;1938;50.812;7.738;2023-09-07T16:01:31;27.60;99.90